Time;durP1;ratioP1;P1;durP2;ratioP2;P2;SDS_P1;SDS_P2;PMS_P1;PMS_P2;Temp;Humidity;BMP_temperature;BMP_pressure;BME280_temperature;BME280_humidity;BME280_pressure;Samples;Min_cycle;Max_cycle;Signal;HPM_P1;HPM_P2
2023/01/26 00:01:48;;;;;;;31.60;15.80;;;;;;;-1.96;100.00;102172.62;105187;1256;59726;-48
2023/01/26 00:04:16;;;;;;;28.50;16.70;;;;;;;-1.96;100.00;102170.51;105720;1260;58442;-44
2023/01/26 00:06:44;;;;;;;30.20;16.80;;;;;;;-1.96;100.00;102162.08;108339;1256;72586;-47
2023/01/26 00:10:08;;;;;;;32.00;19.20;;;;;;;-1.95;97.57;102158.23;102252;1295;599695;-44
2023/01/26 00:12:36;;;;;;;54.10;24.40;;;;;;;-1.96;96.63;102249.88;106009;1270;59802;-45
2023/01/26 00:15:05;;;;;;;53.80;25.80;;;;;;;-1.96;97.44;102237.05;104644;1269;60558;-44
2023/01/26 00:17:33;;;;;;;52.40;24.40;;;;;;;-1.95;97.95;102225.43;106413;1265;72319;-49
2023/01/26 00:20:01;;;;;;;45.80;22.80;;;;;;;-1.95;98.43;102221.42;104595;1267;66821;-45
2023/01/26 00:22:29;;;;;;;41.40;23.80;;;;;;;-1.93;98.77;102211.61;105649;1266;72761;-45
2023/01/26 00:24:59;;;;;;;43.00;24.80;;;;;;;-1.91;98.99;102211.38;104817;1264;203530;-48
2023/01/26 00:27:28;;;;;;;45.20;24.00;;;;;;;-1.89;99.26;102203.70;105083;1263;60540;-46
2023/01/26 00:29:55;;;;;;;33.70;19.10;;;;;;;-1.86;99.46;102200.45;104869;1266;72147;-49
2023/01/26 00:32:25;;;;;;;30.20;18.30;;;;;;;-1.83;99.54;102199.90;104883;1269;69224;-44
2023/01/26 00:34:53;;;;;;;34.60;18.20;;;;;;;-1.80;99.68;102191.75;104791;1267;73225;-46
2023/01/26 00:37:21;;;;;;;34.20;19.30;;;;;;;-1.78;99.73;102186.91;108268;1264;59056;-49
2023/01/26 00:39:50;;;;;;;34.10;19.40;;;;;;;-1.77;99.74;102182.89;108323;1263;59678;-46
2023/01/26 00:42:19;;;;;;;35.30;20.00;;;;;;;-1.76;99.82;102177.98;108440;1263;72363;-46
2023/01/26 00:44:47;;;;;;;37.20;19.00;;;;;;;-1.78;99.85;102172.64;108479;1264;67635;-47
2023/01/26 00:47:17;;;;;;;36.60;21.90;;;;;;;-1.78;99.89;102170.87;108351;1265;72126;-49
2023/01/26 00:49:46;;;;;;;33.10;21.10;;;;;;;-1.79;99.87;102168.20;108191;1263;58144;-46
2023/01/26 00:52:13;;;;;;;32.40;21.00;;;;;;;-1.79;99.95;102163.45;106728;1269;60340;-44
2023/01/26 00:54:41;;;;;;;33.80;20.40;;;;;;;-1.80;99.98;102159.38;105122;1264;73597;-46
2023/01/26 00:57:09;;;;;;;32.30;18.70;;;;;;;-1.80;100.00;102154.59;104923;1263;67271;-47
2023/01/26 00:59:37;;;;;;;32.20;18.80;;;;;;;-1.81;100.00;102156.50;104751;1268;72145;-47
2023/01/26 01:02:05;;;;;;;28.90;17.90;;;;;;;-1.82;100.00;102155.21;104782;1269;60700;-44
2023/01/26 01:04:34;;;;;;;29.70;17.00;;;;;;;-1.83;100.00;102147.48;104656;1267;60518;-46
2023/01/26 01:07:02;;;;;;;29.90;16.60;;;;;;;-1.83;100.00;102138.98;104601;1269;74273;-49
2023/01/26 01:09:32;;;;;;;29.00;15.10;;;;;;;-1.82;100.00;102141.33;104613;1269;68516;-48
2023/01/26 01:12:00;;;;;;;29.40;15.20;;;;;;;-1.80;100.00;102134.55;104405;1266;72119;-48
2023/01/26 01:14:28;;;;;;;26.30;15.90;;;;;;;-1.76;100.00;102136.09;108156;1266;58639;-48
2023/01/26 01:16:57;;;;;;;28.70;15.50;;;;;;;-1.74;100.00;102133.73;108196;1257;60323;-45
2023/01/26 01:19:26;;;;;;;25.60;15.80;;;;;;;-1.71;100.00;102130.16;104611;1259;74423;-47
2023/01/26 01:21:54;;;;;;;26.50;15.70;;;;;;;-1.69;100.00;102126.18;107359;1257;65801;-46
2023/01/26 01:24:22;;;;;;;32.40;17.10;;;;;;;-1.68;100.00;102117.59;106558;1259;72813;-44
2023/01/26 01:26:50;;;;;;;30.90;17.70;;;;;;;-1.68;100.00;102111.59;107508;1259;59617;-48
2023/01/26 01:29:18;;;;;;;30.20;18.30;;;;;;;-1.68;100.00;102107.58;105457;1259;59869;-45
2023/01/26 01:31:46;;;;;;;30.70;17.90;;;;;;;-1.68;100.00;102104.92;105112;1263;72912;-45
2023/01/26 01:34:14;;;;;;;31.20;16.10;;;;;;;-1.68;100.00;102105.08;105542;1262;67971;-45
2023/01/26 01:36:44;;;;;;;31.10;18.60;;;;;;;-1.69;100.00;102099.96;104980;1262;72046;-46
2023/01/26 01:39:13;;;;;;;31.20;17.10;;;;;;;-1.70;100.00;102096.91;105273;1260;59809;-47
2023/01/26 01:41:41;;;;;;;25.00;16.00;;;;;;;-1.73;100.00;102090.48;105653;1262;59660;-46
2023/01/26 01:44:20;;;;;;;33.30;17.30;;;;;;;-1.75;100.00;102087.76;106079;1261;73979;-45
2023/01/26 01:46:50;;;;;;;30.80;16.00;;;;;;;-1.76;100.00;102082.42;105287;1259;67067;-44
2023/01/26 01:49:25;;;;;;;29.40;16.50;;;;;;;-1.76;100.00;102075.55;105119;1262;71476;-45
2023/01/26 01:52:06;;;;;;;29.70;17.50;;;;;;;-1.75;100.00;102072.27;105308;1254;60140;-47
2023/01/26 01:54:57;;;;;;;31.20;16.90;;;;;;;-1.74;100.00;102072.85;105352;1254;60544;-49
2023/01/26 01:57:28;;;;;;;31.20;17.70;;;;;;;-1.71;100.00;102082.11;109059;1254;73143;-48
2023/01/26 02:00:00;;;;;;;28.80;16.70;;;;;;;-1.70;100.00;102065.94;108905;1254;65474;-46
2023/01/26 02:02:28;;;;;;;31.90;19.00;;;;;;;-1.69;100.00;102065.09;106227;1259;70615;-46
2023/01/26 02:04:57;;;;;;;35.00;20.90;;;;;;;-1.69;100.00;102060.00;105275;1254;59940;-46
2023/01/26 02:07:27;;;;;;;35.10;20.70;;;;;;;-1.69;100.00;102061.39;105301;1254;59658;-46
2023/01/26 02:12:43;;;;;;;35.90;20.00;;;;;;;-1.70;100.00;102066.83;106611;1254;67382;-47
2023/01/26 02:15:12;;;;;;;38.30;21.30;;;;;;;-1.71;100.00;102050.61;109087;1253;72556;-47
2023/01/26 02:17:40;;;;;;;39.00;22.50;;;;;;;-1.74;100.00;102046.64;109207;1252;59957;-47
2023/01/26 02:20:18;;;;;;;36.90;22.60;;;;;;;-1.75;100.00;102041.26;109043;1254;59106;-47
2023/01/26 02:22:49;;;;;;;38.50;22.20;;;;;;;-1.78;100.00;102046.80;109222;1253;73938;-47
2023/01/26 02:25:29;;;;;;;35.40;20.60;;;;;;;-1.80;100.00;102036.86;109100;1254;67094;-47
2023/01/26 02:27:57;;;;;;;29.40;18.00;;;;;;;-1.82;100.00;102036.61;109040;1254;70607;-47
2023/01/26 02:30:26;;;;;;;31.80;19.00;;;;;;;-1.83;100.00;102024.61;108930;1254;60559;-47
2023/01/26 02:32:54;;;;;;;36.10;19.50;;;;;;;-1.83;100.00;102020.20;108834;1252;60335;-47
2023/01/26 02:35:25;;;;;;;35.90;20.00;;;;;;;-1.82;100.00;102020.05;109115;1253;72518;-47
2023/01/26 02:37:53;;;;;;;36.00;19.70;;;;;;;-1.81;100.00;102015.34;106008;1253;66569;-46
2023/01/26 02:40:40;;;;;;;35.00;19.90;;;;;;;-1.80;100.00;102009.59;109147;1253;71717;-48
2023/01/26 02:43:11;;;;;;;38.30;19.40;;;;;;;-1.77;100.00;102027.29;109004;1252;59844;-46
2023/01/26 02:45:40;;;;;;;34.00;19.40;;;;;;;-1.75;100.00;102015.21;105530;1254;59539;-48
2023/01/26 02:48:08;;;;;;;35.90;20.40;;;;;;;-1.75;100.00;102012.75;105741;1256;72556;-46
2023/01/26 02:50:36;;;;;;;39.10;20.50;;;;;;;-1.75;100.00;102011.70;105383;1256;67914;-47
2023/01/26 02:53:04;;;;;;;34.70;20.70;;;;;;;-1.76;100.00;102007.45;104978;1253;71452;-45
2023/01/26 02:55:32;;;;;;;36.30;21.30;;;;;;;-1.78;100.00;102001.73;105540;1253;59553;-45
2023/01/26 02:58:02;;;;;;;37.50;22.30;;;;;;;-1.79;100.00;101996.96;107224;1254;60180;-47
2023/01/26 03:00:35;;;;;;;35.50;21.50;;;;;;;-1.82;100.00;101994.39;105698;1253;72181;-47
2023/01/26 03:03:09;;;;;;;39.30;23.00;;;;;;;-1.85;100.00;101991.46;105750;1256;66852;-47
2023/01/26 03:05:38;;;;;;;36.80;21.20;;;;;;;-1.87;100.00;101984.69;107429;1253;71774;-45
2023/01/26 03:08:06;;;;;;;39.00;20.70;;;;;;;-1.89;100.00;101976.16;104837;1254;60984;-46
2023/01/26 03:10:37;;;;;;;40.60;21.20;;;;;;;-1.92;100.00;101978.86;105438;1253;59842;-46
2023/01/26 03:13:07;;;;;;;36.10;19.90;;;;;;;-1.94;100.00;101978.80;105799;1253;70977;-47
2023/01/26 03:16:01;;;;;;;36.00;21.00;;;;;;;-1.95;100.00;101977.86;105333;1252;67822;-47
2023/01/26 03:29:33;;;;;;;35.10;20.70;;;;;;;-1.90;100.00;101980.01;105497;1257;66801;-47
2023/01/26 03:32:01;;;;;;;42.50;22.90;;;;;;;-1.90;100.00;101965.03;105757;1254;71894;-48
2023/01/26 03:34:31;;;;;;;43.80;22.90;;;;;;;-1.91;100.00;101962.71;105221;1259;59685;-48
2023/01/26 03:36:59;;;;;;;41.90;22.30;;;;;;;-1.93;100.00;101956.48;106058;1253;59601;-47
2023/01/26 03:56:31;;;;;;;37.70;22.30;;;;;;;-2.08;100.00;101951.52;105564;1254;67641;-48
2023/01/26 03:59:08;;;;;;;37.60;21.20;;;;;;;-2.07;100.00;101943.84;106133;1254;70590;-47
2023/01/26 04:01:39;;;;;;;38.60;20.80;;;;;;;-2.05;100.00;101941.27;107319;1254;61136;-47
2023/01/26 04:09:46;;;;;;;41.80;22.20;;;;;;;-1.93;100.00;101966.52;105815;1253;67627;-46
2023/01/26 04:12:14;;;;;;;47.90;24.20;;;;;;;-1.88;100.00;101952.08;105746;1258;72784;-46
2023/01/26 04:23:17;;;;;;;44.90;23.80;;;;;;;-1.85;100.00;101975.79;105216;1254;67784;-47
2023/01/26 04:25:46;;;;;;;45.50;23.90;;;;;;;-1.85;100.00;101963.10;105294;1257;71695;-47
2023/01/26 04:28:14;;;;;;;41.80;22.10;;;;;;;-1.86;100.00;101964.83;107056;1254;60781;-47
2023/01/26 04:30:43;;;;;;;39.20;23.20;;;;;;;-1.87;100.00;101961.27;105367;1258;60347;-46
2023/01/26 04:33:11;;;;;;;39.90;22.30;;;;;;;-1.89;100.00;101961.02;105330;1258;74018;-45
2023/01/26 04:35:40;;;;;;;39.00;22.40;;;;;;;-1.92;100.00;101957.06;109033;1254;67118;-47
2023/01/26 04:38:08;;;;;;;41.60;21.40;;;;;;;-1.93;100.00;101956.46;108959;1252;73143;-47
2023/01/26 04:40:37;;;;;;;40.20;22.50;;;;;;;-1.94;100.00;101949.95;109064;1254;61858;-47
2023/01/26 04:43:04;;;;;;;35.50;20.10;;;;;;;-1.93;100.00;101948.40;109137;1258;61444;-47
2023/01/26 04:45:32;;;;;;;34.40;19.80;;;;;;;-1.89;100.00;101947.64;109008;1256;74309;-47
2023/01/26 04:48:03;;;;;;;33.00;18.50;;;;;;;-1.85;100.00;101944.79;108945;1254;67453;-47
2023/01/26 04:50:32;;;;;;;35.50;19.50;;;;;;;-1.82;100.00;101941.93;105831;1254;71684;-48
2023/01/26 04:53:01;;;;;;;36.40;20.90;;;;;;;-1.79;100.00;101940.28;109178;1253;59510;-46
2023/01/26 04:55:32;;;;;;;34.90;20.70;;;;;;;-1.75;100.00;101942.69;108920;1253;59212;-46
2023/01/26 04:58:01;;;;;;;39.40;21.40;;;;;;;-1.73;100.00;101944.38;109171;1253;73161;-46
2023/01/26 05:00:30;;;;;;;36.90;21.70;;;;;;;-1.72;100.00;101942.30;109131;1253;67198;-46
2023/01/26 05:02:59;;;;;;;35.30;20.60;;;;;;;-1.71;100.00;101937.04;107690;1258;72226;-47
2023/01/26 05:05:28;;;;;;;41.60;23.80;;;;;;;-1.71;100.00;101939.35;105315;1255;60472;-47
2023/01/26 05:07:56;;;;;;;33.40;20.70;;;;;;;-1.71;100.00;101937.57;109240;1253;60427;-46
2023/01/26 05:10:27;;;;;;;37.80;19.80;;;;;;;-1.74;100.00;101933.05;109025;1253;73092;-46
2023/01/26 05:13:04;;;;;;;40.40;22.30;;;;;;;-1.78;100.00;101938.55;109145;1254;68991;-46
2023/01/26 05:15:41;;;;;;;37.10;20.50;;;;;;;-1.81;100.00;101938.46;109110;1254;74204;-47
2023/01/26 05:18:17;;;;;;;36.30;19.90;;;;;;;-1.83;100.00;101937.30;109173;1254;59911;-46
2023/01/26 05:20:59;;;;;;;29.20;17.30;;;;;;;-1.84;100.00;101942.21;106667;1254;60486;-48
2023/01/26 05:23:34;;;;;;;33.60;18.50;;;;;;;-1.83;100.00;101938.53;106167;1254;73201;-47
2023/01/26 05:26:31;;;;;;;30.40;17.50;;;;;;;-1.83;100.00;101946.64;105388;1253;67495;-47
2023/01/26 05:29:06;;;;;;;31.50;18.40;;;;;;;-1.81;100.00;101934.23;105412;1254;74148;-47
2023/01/26 05:31:34;;;;;;;33.10;18.50;;;;;;;-1.79;100.00;101925.68;106195;1256;60348;-46
2023/01/26 05:34:06;;;;;;;36.50;19.30;;;;;;;-1.76;100.00;101924.89;105852;1256;60437;-46
2023/01/26 05:36:36;;;;;;;38.60;20.40;;;;;;;-1.75;100.00;101919.83;105633;1256;72932;-47
2023/01/26 05:39:04;;;;;;;33.40;18.90;;;;;;;-1.74;100.00;101920.59;105488;1256;67299;-46
2023/01/26 05:41:33;;;;;;;36.30;20.60;;;;;;;-1.73;100.00;101920.96;105463;1256;74124;-47
2023/01/26 05:44:24;;;;;;;34.60;19.60;;;;;;;-1.74;100.00;101937.13;106635;1254;60531;-47
2023/01/26 05:46:58;;;;;;;36.40;22.30;;;;;;;-1.75;100.00;101938.30;105499;1252;60307;-47
2023/01/26 05:49:29;;;;;;;38.90;21.30;;;;;;;-1.77;100.00;101927.48;105354;1254;71878;-47
2023/01/26 05:51:57;;;;;;;40.10;24.00;;;;;;;-1.81;100.00;101926.65;105853;1254;68183;-46
2023/01/26 05:54:25;;;;;;;43.30;23.60;;;;;;;-1.84;100.00;101921.77;105313;1254;71532;-47
2023/01/26 05:56:56;;;;;;;38.60;21.30;;;;;;;-1.87;100.00;101918.86;105737;1256;61035;-47
2023/01/26 05:59:25;;;;;;;44.10;21.90;;;;;;;-1.89;100.00;101918.83;106280;1256;60690;-46
2023/01/26 06:01:55;;;;;;;37.30;21.40;;;;;;;-1.90;100.00;101915.60;105411;1258;73744;-47
2023/01/26 06:04:23;;;;;;;39.90;20.70;;;;;;;-1.90;100.00;101912.78;106777;1254;68742;-47
2023/01/26 06:06:57;;;;;;;37.20;19.00;;;;;;;-1.88;100.00;101912.52;107539;1256;71759;-48
2023/01/26 06:09:32;;;;;;;35.20;20.00;;;;;;;-1.84;100.00;101923.70;105231;1259;60369;-47
2023/01/26 06:12:16;;;;;;;37.00;22.40;;;;;;;-1.82;100.00;101923.95;105437;1253;60822;-47
2023/01/26 06:15:01;;;;;;;33.70;20.80;;;;;;;-1.79;100.00;101937.10;105899;1257;72733;-45
2023/01/26 06:17:35;;;;;;;36.80;21.70;;;;;;;-1.77;100.00;101932.59;105449;1254;67948;-47
2023/01/26 06:20:06;;;;;;;44.30;22.90;;;;;;;-1.76;100.00;101929.30;105331;1254;71427;-46
2023/01/26 06:22:34;;;;;;;41.30;22.90;;;;;;;-1.75;100.00;101933.02;105388;1259;60451;-46
2023/01/26 06:25:02;;;;;;;42.70;24.60;;;;;;;-1.75;100.00;101931.27;105467;1259;60537;-47
2023/01/26 06:27:32;;;;;;;38.70;23.00;;;;;;;-1.76;100.00;101926.13;105786;1256;72044;-47
2023/01/26 06:30:04;;;;;;;41.80;23.20;;;;;;;-1.77;100.00;101923.27;109141;1254;67686;-47
2023/01/26 06:32:32;;;;;;;38.70;21.40;;;;;;;-1.79;100.00;101918.45;108936;1254;72900;-46
2023/01/26 06:35:05;;;;;;;38.90;20.50;;;;;;;-1.81;100.00;101916.11;109086;1256;61452;-46
2023/01/26 06:37:34;;;;;;;38.10;21.80;;;;;;;-1.82;100.00;101918.52;109138;1252;58732;-46
2023/01/26 06:40:03;;;;;;;42.50;20.90;;;;;;;-1.81;100.00;101917.30;108066;1256;72925;-47
2023/01/26 06:42:31;;;;;;;38.40;20.80;;;;;;;-1.80;100.00;101920.02;106202;1254;67551;-47
2023/01/26 06:45:00;;;;;;;36.90;20.10;;;;;;;-1.79;100.00;101921.80;105751;1254;72650;-47
2023/01/26 06:47:28;;;;;;;44.40;22.90;;;;;;;-1.77;100.00;101926.45;105827;1259;60473;-48
2023/01/26 06:49:56;;;;;;;47.40;23.00;;;;;;;-1.72;100.00;101923.83;105778;1254;60501;-48
2023/01/26 06:52:29;;;;;;;40.50;20.10;;;;;;;-1.67;100.00;101924.48;105510;1253;72812;-47
2023/01/26 06:55:02;;;;;;;37.00;20.00;;;;;;;-1.64;100.00;101932.02;104892;1252;65530;-48
2023/01/26 06:57:45;;;;;;;45.80;23.70;;;;;;;-1.62;100.00;101934.77;109121;1254;71372;-48
2023/01/26 07:00:32;;;;;;;44.00;24.40;;;;;;;-1.60;100.00;101936.39;104968;1253;60811;-48
2023/01/26 07:03:14;;;;;;;43.60;23.90;;;;;;;-1.60;100.00;101937.25;105581;1254;61312;-48
2023/01/26 07:05:42;;;;;;;35.00;20.60;;;;;;;-1.62;100.00;101926.13;106116;1254;74279;-46
2023/01/26 07:08:11;;;;;;;40.50;22.40;;;;;;;-1.63;100.00;101927.33;105535;1256;66368;-45
2023/01/26 07:10:39;;;;;;;42.70;22.30;;;;;;;-1.65;100.00;101929.52;107774;1256;71889;-45
2023/01/26 07:13:07;;;;;;;37.40;21.30;;;;;;;-1.68;100.00;101926.25;109070;1252;61395;-48
2023/01/26 07:15:36;;;;;;;37.30;21.50;;;;;;;-1.68;100.00;101926.95;109065;1254;61061;-47
2023/01/26 07:18:04;;;;;;;39.10;21.20;;;;;;;-1.68;100.00;101924.84;108847;1254;74646;-48
2023/01/26 07:20:32;;;;;;;43.80;22.70;;;;;;;-1.67;100.00;101923.27;106739;1256;69070;-48
2023/01/26 07:23:00;;;;;;;37.50;19.80;;;;;;;-1.64;100.00;101923.05;105432;1254;71420;-48
2023/01/26 07:25:30;;;;;;;40.30;22.80;;;;;;;-1.60;100.00;101927.73;105366;1255;60466;-47
2023/01/26 07:27:58;;;;;;;42.20;22.70;;;;;;;-1.56;100.00;101925.45;109024;1256;60806;-46
2023/01/26 07:30:26;;;;;;;38.60;21.10;;;;;;;-1.53;100.00;101928.19;109274;1253;74036;-46
2023/01/26 07:32:54;;;;;;;41.60;21.90;;;;;;;-1.52;100.00;101926.46;109228;1253;69389;-46
2023/01/26 07:35:22;;;;;;;43.20;22.10;;;;;;;-1.50;100.00;101924.91;108984;1254;71915;-46
2023/01/26 07:37:50;;;;;;;41.80;23.00;;;;;;;-1.51;100.00;101920.67;109062;1253;58638;-46
2023/01/26 07:40:18;;;;;;;43.00;23.00;;;;;;;-1.52;100.00;101921.34;109082;1252;59390;-46
2023/01/26 07:42:47;;;;;;;39.80;24.20;;;;;;;-1.54;100.00;101926.77;109202;1253;75031;-46
2023/01/26 07:45:20;;;;;;;43.30;23.10;;;;;;;-1.54;100.00;101923.77;108956;1254;69198;-46
2023/01/26 07:47:49;;;;;;;36.90;20.60;;;;;;;-1.54;100.00;101923.94;109209;1254;73078;-47
2023/01/26 07:50:17;;;;;;;38.50;20.70;;;;;;;-1.53;100.00;101920.63;109253;1254;62083;-47
2023/01/26 07:52:45;;;;;;;39.00;22.80;;;;;;;-1.52;100.00;101916.42;109107;1252;59567;-46
2023/01/26 07:55:14;;;;;;;36.70;21.60;;;;;;;-1.48;100.00;101914.78;109196;1254;71752;-46
2023/01/26 07:57:42;;;;;;;42.00;22.00;;;;;;;-1.45;100.00;101917.73;108990;1256;68082;-46
2023/01/26 08:00:11;;;;;;;42.00;24.50;;;;;;;-1.41;100.00;101915.90;109117;1253;72845;-47
2023/01/26 08:02:39;;;;;;;45.20;23.70;;;;;;;-1.38;100.00;101916.04;109064;1253;58592;-47
2023/01/26 08:05:07;;;;;;;44.90;24.10;;;;;;;-1.34;100.00;101916.88;109140;1253;59759;-47
2023/01/26 08:07:35;;;;;;;40.10;22.40;;;;;;;-1.31;100.00;101918.58;109256;1253;72452;-47
2023/01/26 08:10:03;;;;;;;38.90;20.80;;;;;;;-1.28;100.00;101917.98;109110;1254;67998;-47
2023/01/26 08:12:34;;;;;;;34.50;19.20;;;;;;;-1.25;100.00;101923.70;109082;1254;71745;-47
2023/01/26 08:15:08;;;;;;;33.40;19.20;;;;;;;-1.23;100.00;101929.42;109193;1254;58405;-47
2023/01/26 08:19:25;;;;;;;22.60;11.30;;;;;;;-1.20;100.00;101935.15;102390;1292;600470;-46
2023/01/26 08:21:53;;;;;;;22.50;11.20;;;;;;;-1.19;99.77;102035.41;104996;1266;59764;-45
2023/01/26 08:24:21;;;;;;;23.80;11.80;;;;;;;-1.18;100.00;102021.90;105327;1264;61886;-47
2023/01/26 08:26:49;;;;;;;20.30;11.10;;;;;;;-1.17;100.00;102015.05;104503;1264;73031;-46
2023/01/26 08:29:19;;;;;;;21.10;10.30;;;;;;;-1.16;100.00;102011.04;104351;1268;67015;-47
2023/01/26 08:31:47;;;;;;;24.00;11.30;;;;;;;-1.13;100.00;102007.27;104252;1266;72861;-46
2023/01/26 08:34:15;;;;;;;18.50;9.60;;;;;;;-1.10;100.00;102000.13;104297;1263;138281;-45
2023/01/26 08:36:44;;;;;;;16.40;9.50;;;;;;;-1.06;100.00;101995.88;104801;1263;59521;-47
2023/01/26 08:39:12;;;;;;;17.70;9.30;;;;;;;-1.02;100.00;101992.65;104681;1254;71411;-46
2023/01/26 08:41:39;;;;;;;18.80;9.90;;;;;;;-0.99;100.00;101988.20;106554;1259;68075;-44
2023/01/26 08:44:09;;;;;;;22.80;11.30;;;;;;;-0.95;100.00;101990.65;105583;1254;71520;-46
2023/01/26 08:46:37;;;;;;;27.10;14.70;;;;;;;-0.92;100.00;101987.35;105726;1254;59743;-45
2023/01/26 08:49:05;;;;;;;40.50;20.00;;;;;;;-0.90;100.00;101982.86;105344;1254;60016;-47
2023/01/26 08:51:33;;;;;;;25.80;13.70;;;;;;;-0.90;100.00;101977.95;104813;1256;73313;-46
2023/01/26 08:54:00;;;;;;;36.80;20.10;;;;;;;-0.90;100.00;101973.88;104898;1259;67886;-46
2023/01/26 08:56:28;;;;;;;42.70;22.70;;;;;;;-0.90;100.00;101967.52;104939;1256;72443;-46
2023/01/26 08:58:56;;;;;;;28.30;14.00;;;;;;;-0.91;100.00;101966.63;104679;1256;60771;-46
2023/01/26 09:01:24;;;;;;;23.10;12.50;;;;;;;-0.89;100.00;101963.89;105331;1255;60081;-44
2023/01/26 09:03:55;;;;;;;16.80;11.10;;;;;;;-0.86;100.00;101960.63;105695;1254;72143;-49
2023/01/26 09:06:22;;;;;;;20.10;12.30;;;;;;;-0.82;100.00;101958.96;105005;1254;68875;-45
2023/01/26 09:08:54;;;;;;;19.20;11.20;;;;;;;-0.79;100.00;101959.27;104713;1254;73068;-46
2023/01/26 09:11:22;;;;;;;22.70;10.50;;;;;;;-0.75;100.00;101953.20;104536;1254;59690;-48
2023/01/26 09:13:55;;;;;;;18.00;10.90;;;;;;;-0.70;100.00;101951.27;104758;1256;59705;-46
2023/01/26 09:16:31;;;;;;;18.00;12.20;;;;;;;-0.66;100.00;101959.29;104481;1255;73744;-47
2023/01/26 09:18:59;;;;;;;17.60;10.80;;;;;;;-0.64;100.00;101951.63;106248;1259;68174;-49
2023/01/26 09:21:28;;;;;;;23.90;12.20;;;;;;;-0.61;100.00;101954.39;105253;1259;71557;-45
2023/01/26 09:23:56;;;;;;;21.80;11.70;;;;;;;-0.57;100.00;101952.55;104708;1259;59952;-47
2023/01/26 09:26:24;;;;;;;18.50;10.60;;;;;;;-0.52;100.00;101956.06;108442;1254;59282;-49
2023/01/26 09:28:52;;;;;;;44.30;24.00;;;;;;;-0.46;100.00;101959.27;105854;1259;73044;-45
2023/01/26 09:31:20;;;;;;;33.10;18.10;;;;;;;-0.38;100.00;101967.45;105600;1256;67006;-47
2023/01/26 09:33:49;;;;;;;17.20;10.00;;;;;;;-0.29;100.00;101971.78;108940;1255;71974;-48
2023/01/26 09:36:17;;;;;;;18.20;9.30;;;;;;;-0.22;100.00;101971.65;108678;1255;61368;-47
2023/01/26 09:38:46;;;;;;;19.90;9.40;;;;;;;-0.19;100.00;101969.12;104720;1256;60451;-46
2023/01/26 09:41:23;;;;;;;14.80;9.00;;;;;;;-0.18;100.00;101973.36;104933;1257;72230;-47
2023/01/26 09:43:53;;;;;;;14.10;8.00;;;;;;;-0.18;100.00;101975.31;104533;1256;67239;-46
2023/01/26 09:46:49;;;;;;;13.90;8.40;;;;;;;-0.17;100.00;101971.80;108670;1255;72898;-52
2023/01/26 09:49:45;;;;;;;12.50;7.60;;;;;;;-0.16;99.77;101988.77;108649;1256;59465;-49
2023/01/26 09:52:32;;;;;;;12.00;7.40;;;;;;;-0.15;99.79;101988.27;108728;1255;60275;-50
2023/01/26 09:55:03;;;;;;;13.50;7.10;;;;;;;-0.11;99.85;101986.99;108835;1256;73582;-47
2023/01/26 09:57:36;;;;;;;10.50;6.40;;;;;;;-0.07;100.00;101977.40;108608;1255;67078;-48
2023/01/26 10:00:28;;;;;;;10.10;6.20;;;;;;;-0.02;100.00;101969.98;108729;1256;73793;-48
2023/01/26 10:03:31;;;;;;;11.70;6.50;;;;;;;0.06;99.74;101982.02;108823;1257;60830;-50
2023/01/26 10:06:05;;;;;;;11.10;6.50;;;;;;;0.11;99.51;101990.10;108667;1256;58943;-50
2023/01/26 10:09:00;;;;;;;12.10;7.40;;;;;;;0.15;99.57;101981.95;108780;1256;72053;-50
2023/01/26 10:11:37;;;;;;;13.40;7.40;;;;;;;0.17;99.80;101971.94;108638;1260;68566;-49
2023/01/26 10:14:08;;;;;;;8.70;5.90;;;;;;;0.17;99.81;101972.47;108744;1255;70924;-50
2023/01/26 10:16:37;;;;;;;9.90;6.40;;;;;;;0.15;99.89;101966.96;108579;1257;59586;-48
2023/01/26 10:19:11;;;;;;;13.00;5.60;;;;;;;0.14;99.99;101962.66;108823;1255;59161;-49
2023/01/26 10:21:42;;;;;;;8.50;5.20;;;;;;;0.13;99.90;101968.63;108668;1254;73789;-49
2023/01/26 10:24:10;;;;;;;7.90;5.00;;;;;;;0.14;99.96;101960.20;108692;1257;66957;-50
2023/01/26 10:26:38;;;;;;;8.80;6.20;;;;;;;0.15;100.00;101952.46;108765;1257;72620;-50
2023/01/26 10:29:14;;;;;;;12.50;6.50;;;;;;;0.13;100.00;101946.23;108579;1256;60585;-49
2023/01/26 10:31:42;;;;;;;10.60;7.00;;;;;;;0.12;99.90;101951.12;105314;1256;59618;-50
2023/01/26 10:34:16;;;;;;;11.50;6.10;;;;;;;0.12;100.00;101938.05;104645;1258;73399;-47
2023/01/26 10:36:44;;;;;;;10.20;7.50;;;;;;;0.13;99.95;101937.23;105635;1256;67412;-46
2023/01/26 10:39:15;;;;;;;13.90;7.60;;;;;;;0.14;100.00;101930.89;104953;1259;73862;-49
2023/01/26 10:42:01;;;;;;;13.20;7.90;;;;;;;0.18;99.97;101931.34;108616;1257;58497;-49
2023/01/26 10:44:33;;;;;;;11.80;6.50;;;;;;;0.21;99.75;101945.90;106289;1256;60492;-47
2023/01/26 10:47:12;;;;;;;12.10;6.70;;;;;;;0.24;99.90;101937.00;104618;1259;72302;-47
2023/01/26 10:49:40;;;;;;;9.70;5.90;;;;;;;0.24;99.80;101937.19;104531;1256;69254;-50
2023/01/26 10:52:22;;;;;;;12.60;6.10;;;;;;;0.24;99.97;101928.52;104587;1256;73617;-48
2023/01/26 10:55:19;;;;;;;11.20;5.90;;;;;;;0.24;99.77;101937.55;104824;1259;59758;-49
2023/01/26 10:57:46;;;;;;;8.90;5.50;;;;;;;0.25;99.52;101947.98;104964;1256;59797;-49
2023/01/26 11:00:18;;;;;;;13.10;7.20;;;;;;;0.25;99.93;101929.98;108728;1255;73218;-51
2023/01/26 11:03:03;;;;;;;11.70;6.90;;;;;;;0.23;99.91;101926.39;108879;1255;67627;-51
2023/01/26 11:05:31;;;;;;;14.20;7.80;;;;;;;0.22;99.72;101928.13;105661;1259;72482;-49
2023/01/26 11:08:01;;;;;;;11.50;7.40;;;;;;;0.23;99.98;101914.04;108745;1254;60449;-50
2023/01/26 11:10:32;;;;;;;9.10;5.50;;;;;;;0.25;99.96;101912.67;105035;1256;59605;-47
2023/01/26 11:13:17;;;;;;;11.10;6.20;;;;;;;0.27;99.92;101914.11;105717;1255;74019;-48
2023/01/26 11:16:06;;;;;;;13.70;7.90;;;;;;;0.29;99.74;101914.02;107515;1256;66518;-51
2023/01/26 11:18:48;;;;;;;14.50;6.90;;;;;;;0.30;99.64;101918.11;105790;1259;72289;-46
2023/01/26 11:21:41;;;;;;;16.80;7.10;;;;;;;0.31;99.71;101914.79;105052;1259;61168;-48
2023/01/26 11:24:26;;;;;;;11.90;7.30;;;;;;;0.33;99.51;101922.63;105213;1256;60961;-48
2023/01/26 11:27:13;;;;;;;12.30;6.50;;;;;;;0.34;99.63;101919.98;105092;1258;70781;-50
2023/01/26 11:30:01;;;;;;;13.80;7.80;;;;;;;0.35;99.59;101925.48;105180;1257;67041;-49
2023/01/26 11:32:54;;;;;;;15.70;8.30;;;;;;;0.37;99.53;101924.81;104798;1259;71973;-50
2023/01/26 11:35:47;;;;;;;13.30;6.60;;;;;;;0.37;99.44;101927.84;106405;1259;60601;-50
2023/01/26 11:38:15;;;;;;;17.90;8.30;;;;;;;0.36;99.42;101925.48;104924;1256;59976;-51
2023/01/26 11:40:55;;;;;;;18.10;9.90;;;;;;;0.33;99.88;101903.72;104527;1256;73347;-47
2023/01/26 11:43:26;;;;;;;15.80;8.50;;;;;;;0.32;99.76;101905.11;104828;1259;66210;-50
2023/01/26 11:46:02;;;;;;;17.70;8.60;;;;;;;0.31;99.89;101893.42;104757;1256;70485;-46
2023/01/26 11:48:42;;;;;;;16.00;8.90;;;;;;;0.31;99.83;101891.27;106733;1259;59721;-47
2023/01/26 11:51:27;;;;;;;13.60;7.40;;;;;;;0.29;99.80;101893.71;104912;1257;59625;-49
2023/01/26 11:54:16;;;;;;;16.50;8.70;;;;;;;0.27;99.72;101901.77;108787;1256;72745;-51
2023/01/26 11:56:51;;;;;;;10.80;7.20;;;;;;;0.25;99.69;101904.36;106553;1257;66836;-48
2023/01/26 11:59:50;;;;;;;15.10;6.50;;;;;;;0.23;99.89;101893.02;105431;1256;72598;-49
2023/01/26 12:02:31;;;;;;;13.20;7.10;;;;;;;0.21;99.61;101896.65;104541;1259;61299;-49
2023/01/26 12:05:11;;;;;;;13.30;6.80;;;;;;;0.19;99.83;101883.54;104694;1257;60526;-47
2023/01/26 12:07:55;;;;;;;11.20;6.30;;;;;;;0.18;99.87;101877.48;105725;1257;74140;-50
2023/01/26 12:10:29;;;;;;;13.20;7.60;;;;;;;0.16;99.84;101872.67;108743;1255;68006;-48